Time;durP1;ratioP1;P1;durP2;ratioP2;P2;SDS_P1;SDS_P2;PMS_P1;PMS_P2;Temp;Humidity;BMP_temperature;BMP_pressure;BME280_temperature;BME280_humidity;BME280_pressure;Samples;Min_cycle;Max_cycle;Signal;HPM_P1;HPM_P2
2022/05/02 00:00:24;;;;;;;15.27;6.35;;;14.10;85.90;;;;;;4738309;30;20406;-91
2022/05/02 00:02:52;;;;;;;12.77;6.40;;;14.10;85.30;;;;;;4744245;30;20056;-93
2022/05/02 00:05:20;;;;;;;13.43;6.60;;;14.10;85.00;;;;;;4723946;30;20053;-92
2022/05/02 00:07:47;;;;;;;11.82;6.18;;;13.90;85.20;;;;;;4739967;30;20056;-93
2022/05/02 00:10:15;;;;;;;14.73;6.07;;;13.70;85.90;;;;;;4739564;30;20045;-92
2022/05/02 00:12:42;;;;;;;11.60;6.57;;;13.60;87.00;;;;;;4725710;30;20423;-93
2022/05/02 00:15:10;;;;;;;11.45;6.13;;;13.70;87.50;;;;;;4726953;30;20143;-92
2022/05/02 00:20:26;;;;;;;10.85;5.68;;;13.90;86.90;;;;;;4753970;30;20052;-92
2022/05/02 00:22:54;;;;;;;10.57;5.95;;;14.00;88.60;;;;;;4723713;30;20049;-93
2022/05/02 00:25:22;;;;;;;10.25;5.30;;;14.00;87.20;;;;;;4728686;30;20056;-93
2022/05/02 00:27:49;;;;;;;9.07;5.57;;;14.00;84.70;;;;;;4743000;30;20080;-93
2022/05/02 00:30:17;;;;;;;9.10;5.75;;;14.00;84.20;;;;;;4742663;30;20495;-93
2022/05/02 00:32:45;;;;;;;8.27;5.30;;;13.90;83.60;;;;;;4742135;30;20060;-93
2022/05/02 00:35:13;;;;;;;9.98;5.63;;;13.90;85.30;;;;;;4741955;30;20437;-92
2022/05/02 00:37:42;;;;;;;8.95;4.68;;;13.90;84.50;;;;;;4723229;30;20052;-94
2022/05/02 00:40:12;;;;;;;9.68;5.22;;;13.90;84.00;;;;;;4742764;30;20056;-93
2022/05/02 00:42:44;;;;;;;8.00;4.60;;;13.90;83.30;;;;;;4739407;30;20113;-93
2022/05/02 00:45:14;;;;;;;10.07;5.18;;;14.00;83.30;;;;;;4743337;30;20048;-94
2022/05/02 00:47:48;;;;;;;10.57;5.15;;;13.90;82.60;;;;;;4728789;30;20059;-93
2022/05/02 00:50:15;;;;;;;7.78;5.07;;;13.90;82.50;;;;;;4729415;30;20048;-93
2022/05/02 00:52:43;;;;;;;9.65;4.85;;;13.90;82.30;;;;;;4740126;30;20127;-93
2022/05/02 00:55:11;;;;;;;7.57;4.60;;;14.00;81.90;;;;;;4754282;30;20072;-92
2022/05/02 00:57:38;;;;;;;6.50;4.57;;;13.90;81.70;;;;;;4724939;30;20601;-93
2022/05/02 01:00:06;;;;;;;7.18;4.85;;;13.90;82.00;;;;;;4761661;30;20047;-93
2022/05/02 01:02:33;;;;;;;7.60;4.78;;;13.90;81.80;;;;;;4747029;30;20051;-92
2022/05/02 01:05:01;;;;;;;8.77;4.60;;;13.90;81.50;;;;;;4746094;30;20043;-92
2022/05/02 01:07:31;;;;;;;8.30;4.00;;;13.80;81.00;;;;;;4747280;30;20075;-93
2022/05/02 01:09:58;;;;;;;7.32;4.60;;;13.80;81.50;;;;;;4763890;30;20051;-93
2022/05/02 01:12:26;;;;;;;9.75;4.78;;;13.80;82.00;;;;;;4760209;30;20055;-92
2022/05/02 01:14:56;;;;;;;7.22;4.15;;;13.90;82.90;;;;;;4749284;30;20102;-93
2022/05/02 01:17:24;;;;;;;8.43;4.25;;;13.90;81.30;;;;;;4762673;30;20056;-92
2022/05/02 01:19:51;;;;;;;11.27;5.10;;;13.80;82.10;;;;;;4761058;30;20048;-90
2022/05/02 01:22:19;;;;;;;9.68;5.00;;;13.80;82.60;;;;;;4762330;30;20108;-92
2022/05/02 01:24:48;;;;;;;8.68;4.20;;;13.70;83.60;;;;;;4761311;30;20056;-93
2022/05/02 01:27:16;;;;;;;7.70;4.55;;;13.60;83.00;;;;;;4777806;29;20051;-92
2022/05/02 01:29:45;;;;;;;7.28;4.68;;;13.70;83.50;;;;;;4760112;30;20900;-91
2022/05/02 01:32:15;;;;;;;7.50;4.72;;;13.70;85.10;;;;;;4765531;30;20055;-91
2022/05/02 01:34:43;;;;;;;7.05;4.28;;;13.70;82.60;;;;;;4770386;30;20051;-92
2022/05/02 01:37:13;;;;;;;9.07;4.32;;;13.70;81.90;;;;;;4751270;30;20070;-92
2022/05/02 01:39:42;;;;;;;7.45;4.65;;;13.70;82.40;;;;;;4763744;30;20076;-91
2022/05/02 01:42:11;;;;;;;8.70;4.32;;;13.80;84.80;;;;;;4776747;29;20051;-92
2022/05/02 01:44:39;;;;;;;9.02;4.45;;;13.80;83.20;;;;;;4752263;30;20101;-93
2022/05/02 01:47:08;;;;;;;8.45;4.70;;;13.80;82.90;;;;;;4766298;30;20063;-92
2022/05/02 01:49:36;;;;;;;8.40;4.93;;;13.80;84.80;;;;;;4755299;30;20047;-92
2022/05/02 01:52:04;;;;;;;9.50;5.15;;;13.80;84.50;;;;;;4766848;30;20494;-92
2022/05/02 01:54:31;;;;;;;9.00;5.03;;;13.80;83.70;;;;;;4747237;30;20598;-93
2022/05/02 01:56:58;;;;;;;8.48;4.97;;;13.80;83.40;;;;;;4759649;29;20060;-92
2022/05/02 01:59:25;;;;;;;9.05;4.75;;;13.80;83.80;;;;;;4751328;30;20142;-92
2022/05/02 02:01:53;;;;;;;7.30;4.35;;;13.80;84.30;;;;;;4756586;30;20051;-92
2022/05/02 02:07:06;;;;;;;7.45;4.72;;;13.80;83.90;;;;;;4764172;30;20705;-92
2022/05/02 02:09:33;;;;;;;8.18;5.22;;;13.80;86.50;;;;;;4763878;30;20052;-92
2022/05/02 02:12:00;;;;;;;7.03;4.80;;;13.80;85.70;;;;;;4764547;30;20059;-92
2022/05/02 02:14:28;;;;;;;8.63;5.03;;;13.70;84.70;;;;;;4768598;30;20051;-92
2022/05/02 02:16:55;;;;;;;7.32;4.75;;;13.70;86.10;;;;;;4766861;30;20740;-93
2022/05/02 02:19:22;;;;;;;6.97;4.65;;;13.70;84.50;;;;;;4756372;30;20389;-92
2022/05/02 02:21:49;;;;;;;8.85;5.05;;;13.70;85.10;;;;;;4759644;30;20051;-92
2022/05/02 02:24:17;;;;;;;9.52;5.68;;;13.40;86.40;;;;;;4766701;30;20055;-91
2022/05/02 02:26:45;;;;;;;8.15;5.07;;;13.40;88.40;;;;;;4769897;30;20059;-92
2022/05/02 02:29:12;;;;;;;8.68;5.10;;;13.40;88.70;;;;;;4746946;30;20627;-92
2022/05/02 02:31:39;;;;;;;9.80;5.65;;;13.40;89.00;;;;;;4756777;30;20055;-91
2022/05/02 02:34:07;;;;;;;8.85;5.45;;;13.40;88.10;;;;;;4768333;30;20051;-92
2022/05/02 02:36:34;;;;;;;8.00;4.95;;;13.50;87.20;;;;;;4764545;30;20063;-92
2022/05/02 02:39:01;;;;;;;9.50;5.70;;;13.30;87.20;;;;;;4773394;30;20047;-91
2022/05/02 02:41:29;;;;;;;8.77;5.35;;;13.20;87.80;;;;;;4758287;30;20059;-92
2022/05/02 02:43:56;;;;;;;8.23;4.80;;;13.20;87.80;;;;;;4769478;30;20039;-92
2022/05/02 02:46:23;;;;;;;9.23;5.65;;;13.30;87.80;;;;;;4767862;30;20055;-92
2022/05/02 02:48:50;;;;;;;7.47;4.72;;;13.20;88.10;;;;;;4756255;30;20467;-92
2022/05/02 02:51:18;;;;;;;7.30;5.05;;;13.20;88.20;;;;;;4765516;30;20233;-92
2022/05/02 02:53:45;;;;;;;8.98;5.00;;;13.30;87.90;;;;;;4757322;30;20047;-92
2022/05/02 02:56:12;;;;;;;8.90;5.18;;;13.30;87.70;;;;;;4766483;30;20113;-92
2022/05/02 02:58:39;;;;;;;10.30;5.07;;;13.40;86.80;;;;;;4737999;30;20064;-92
2022/05/02 03:01:07;;;;;;;8.73;5.45;;;13.40;87.20;;;;;;4742420;30;20499;-92
2022/05/02 03:03:34;;;;;;;10.32;5.95;;;13.30;86.20;;;;;;4721450;30;20048;-92
2022/05/02 03:06:02;;;;;;;7.15;5.18;;;13.20;86.20;;;;;;4742913;30;20056;-92
2022/05/02 03:08:32;;;;;;;11.23;6.25;;;13.20;86.60;;;;;;4742726;30;20064;-92
2022/05/02 03:11:00;;;;;;;10.50;6.20;;;13.20;86.80;;;;;;4730257;30;20060;-93
2022/05/02 03:13:28;;;;;;;10.93;6.03;;;13.30;86.90;;;;;;4749480;30;20064;-91
2022/05/02 03:15:56;;;;;;;11.48;7.00;;;13.30;86.90;;;;;;4730863;30;20040;-92
2022/05/02 03:18:23;;;;;;;11.88;7.53;;;13.30;87.20;;;;;;4723391;30;20143;-92
2022/05/02 03:20:51;;;;;;;9.60;5.53;;;13.30;87.70;;;;;;4735823;30;20139;-92
2022/05/02 03:23:19;;;;;;;9.85;6.53;;;13.30;86.60;;;;;;4731310;30;20052;-92
2022/05/02 03:25:47;;;;;;;9.25;5.68;;;13.30;86.20;;;;;;4748041;30;20074;-92
2022/05/02 03:28:14;;;;;;;7.55;5.40;;;13.30;86.50;;;;;;4723635;30;20097;-92
2022/05/02 03:30:42;;;;;;;7.13;5.50;;;13.30;86.20;;;;;;4751144;30;20048;-92
2022/05/02 03:33:09;;;;;;;9.90;5.78;;;13.30;86.80;;;;;;4739472;30;20558;-92
2022/05/02 03:35:36;;;;;;;8.77;5.45;;;13.40;88.70;;;;;;4744195;30;20098;-92
2022/05/02 03:38:04;;;;;;;8.73;5.45;;;13.40;87.80;;;;;;4733174;30;20106;-92
2022/05/02 03:40:31;;;;;;;10.02;5.30;;;13.30;86.90;;;;;;4733299;30;20079;-92
2022/05/02 03:42:58;;;;;;;9.75;5.10;;;13.40;86.60;;;;;;4732427;30;20052;-92
2022/05/02 03:45:26;;;;;;;10.07;5.40;;;13.40;86.50;;;;;;4731920;30;20070;-92
2022/05/02 03:47:53;;;;;;;8.68;5.72;;;13.30;86.10;;;;;;4750993;30;20102;-93
2022/05/02 03:50:20;;;;;;;10.82;5.82;;;13.40;86.70;;;;;;4748804;30;20128;-92
2022/05/02 03:52:53;;;;;;;;;;;13.40;86.70;;;;;;4734793;30;20056;-92
2022/05/02 03:55:21;;;;;;;11.20;5.38;;;13.40;86.80;;;;;;4746370;30;19926;-92
2022/05/02 03:57:48;;;;;;;7.57;5.32;;;13.40;88.30;;;;;;4751498;30;20121;-92
2022/05/02 04:00:16;;;;;;;10.50;5.72;;;13.40;87.20;;;;;;4763528;30;20052;-92
2022/05/02 04:02:50;;;;;;;9.15;5.95;;;13.40;86.40;;;;;;4755101;30;20102;-92
2022/05/02 04:05:18;;;;;;;8.60;5.68;;;13.40;87.10;;;;;;4771748;30;20072;-92
2022/05/02 04:07:45;;;;;;;8.07;5.28;;;13.40;86.80;;;;;;4766232;30;20056;-90
2022/05/02 04:10:12;;;;;;;12.80;5.25;;;13.40;86.30;;;;;;4770322;30;20047;-93
2022/05/02 04:12:40;;;;;;;12.95;5.90;;;13.40;86.10;;;;;;4761694;30;20092;-92
2022/05/02 04:15:11;;;;;;;13.55;5.60;;;13.40;85.90;;;;;;4749487;30;20113;-92
2022/05/02 04:17:39;;;;;;;9.85;5.35;;;13.50;86.40;;;;;;4760817;30;20143;-93
2022/05/02 04:20:08;;;;;;;9.10;5.38;;;13.40;85.70;;;;;;4754975;30;20077;-93
2022/05/02 04:22:36;;;;;;;11.73;6.10;;;13.40;86.20;;;;;;4769328;30;20059;-94
2022/05/02 04:25:05;;;;;;;10.18;6.45;;;13.50;87.10;;;;;;4770378;30;20051;-93
2022/05/02 04:27:32;;;;;;;12.15;5.70;;;13.50;86.80;;;;;;4766147;30;20047;-93
2022/05/02 04:30:00;;;;;;;9.40;5.22;;;13.40;86.20;;;;;;4753942;30;20052;-93
2022/05/02 04:32:27;;;;;;;9.18;5.68;;;13.40;86.40;;;;;;4756542;30;20116;-92
2022/05/02 04:34:56;;;;;;;8.07;5.15;;;13.40;86.50;;;;;;4753786;30;20048;-92
2022/05/02 04:37:23;;;;;;;13.85;5.22;;;13.50;86.30;;;;;;4771255;30;20055;-93
2022/05/02 04:39:53;;;;;;;9.38;5.55;;;13.50;87.40;;;;;;4750748;30;20132;-92
2022/05/02 04:42:20;;;;;;;10.93;5.35;;;13.50;87.10;;;;;;4755337;30;20140;-93
2022/05/02 04:44:48;;;;;;;11.25;4.72;;;13.50;85.90;;;;;;4752545;30;20055;-93
2022/05/02 04:47:16;;;;;;;7.70;5.18;;;13.50;83.90;;;;;;4769993;30;20059;-92
2022/05/02 04:49:43;;;;;;;10.05;5.32;;;13.60;84.10;;;;;;4767430;29;20461;-92
2022/05/02 04:52:11;;;;;;;10.60;5.53;;;13.60;85.90;;;;;;4753478;30;20058;-92
2022/05/02 04:54:38;;;;;;;11.43;5.38;;;13.60;85.20;;;;;;4754820;29;20047;-92
2022/05/02 04:57:06;;;;;;;11.00;5.43;;;13.60;86.00;;;;;;4752422;29;20525;-92
2022/05/02 04:59:33;;;;;;;8.90;4.28;;;13.70;86.60;;;;;;4769882;30;20062;-93
2022/05/02 05:02:00;;;;;;;9.15;5.03;;;13.70;85.50;;;;;;4745403;30;20063;-93
2022/05/02 05:04:27;;;;;;;9.05;5.22;;;13.70;86.80;;;;;;4761339;29;20052;-91
2022/05/02 05:06:55;;;;;;;10.02;5.78;;;13.60;86.50;;;;;;4761716;30;20079;-92
2022/05/02 05:09:22;;;;;;;9.80;5.63;;;13.60;87.00;;;;;;4756208;30;20075;-91
2022/05/02 05:11:58;;;;;;;14.20;5.70;;;13.60;85.70;;;;;;4735922;30;20063;-92
2022/05/02 05:18:12;;;;;;;10.57;5.65;;;13.60;86.60;;;;;;4768563;29;20054;-91
2022/05/02 05:20:57;;;;;;;9.55;6.03;;;13.70;88.30;;;;;;4744633;30;20327;-93
2022/05/02 05:24:24;;;;;;;8.30;5.32;;;13.70;87.20;;;;;;4757459;30;20066;-91
2022/05/02 05:27:08;;;;;;;12.77;6.90;;;13.60;88.20;;;;;;4743629;30;20059;-92
2022/05/02 05:30:04;;;;;;;23.38;10.27;;;13.60;88.30;;;;;;4734758;30;20063;-91
2022/05/02 05:33:02;;;;;;;18.13;9.63;;;13.60;87.80;;;;;;4739511;30;20051;-92
2022/05/02 05:36:07;;;;;;;14.15;7.03;;;13.60;88.70;;;;;;4751389;30;20067;-92
2022/05/02 05:38:51;;;;;;;10.45;6.50;;;13.60;88.80;;;;;;4760831;30;20062;-93
2022/05/02 05:41:40;;;;;;;12.18;6.32;;;13.70;89.00;;;;;;4757718;30;20059;-92
2022/05/02 05:44:26;;;;;;;10.80;6.57;;;13.70;89.20;;;;;;4745262;30;20055;-92
2022/05/02 05:47:15;;;;;;;12.38;6.85;;;13.70;89.70;;;;;;4745622;30;20055;-93
2022/05/02 05:50:07;;;;;;;24.08;7.07;;;13.70;88.90;;;;;;4745214;29;20121;-91
2022/05/02 05:52:59;;;;;;;14.52;7.43;;;13.70;89.40;;;;;;4738650;30;20059;-91
2022/05/02 05:55:50;;;;;;;10.07;6.50;;;13.80;90.30;;;;;;4740779;30;20059;-92
2022/05/02 05:58:26;;;;;;;11.10;7.05;;;13.80;91.10;;;;;;4726714;30;20070;-90
2022/05/02 06:01:11;;;;;;;13.73;7.35;;;13.90;90.50;;;;;;4741739;30;21011;-91
2022/05/02 06:04:03;;;;;;;12.18;7.00;;;13.90;89.30;;;;;;4757230;30;20052;-91
2022/05/02 06:06:31;;;;;;;10.27;6.85;;;13.90;89.90;;;;;;4767632;29;20062;-93
2022/05/02 06:08:59;;;;;;;12.82;7.55;;;13.90;90.40;;;;;;4760795;30;20147;-92
2022/05/02 06:11:27;;;;;;;17.88;9.25;;;13.90;90.00;;;;;;4761908;30;20055;-93
2022/05/02 06:13:58;;;;;;;24.90;8.25;;;13.90;90.20;;;;;;4737914;30;20062;-91
2022/05/02 06:19:20;;;;;;;13.00;6.85;;;14.00;90.40;;;;;;4765746;30;20127;-92
2022/05/02 06:21:49;;;;;;;9.93;6.20;;;14.10;89.90;;;;;;4776447;29;20059;-92
2022/05/02 06:24:17;;;;;;;10.95;6.22;;;14.20;90.00;;;;;;4748457;30;20055;-93
2022/05/02 06:26:49;;;;;;;11.68;6.38;;;14.20;90.40;;;;;;4764956;30;20518;-93
2022/05/02 06:29:18;;;;;;;;;;;14.30;90.50;;;;;;4764915;30;20066;-91
2022/05/02 06:31:49;;;;;;;8.23;4.75;;;14.40;90.10;;;;;;4757940;30;19933;-92
2022/05/02 06:34:28;;;;;;;11.63;5.40;;;14.50;89.00;;;;;;4747265;30;20047;-92
2022/05/02 06:37:22;;;;;;;10.25;5.25;;;14.70;89.50;;;;;;4760633;30;20055;-92
2022/05/02 06:40:10;;;;;;;11.50;5.28;;;14.90;90.40;;;;;;4752199;30;20146;-92
2022/05/02 06:42:43;;;;;;;11.10;5.88;;;15.10;90.00;;;;;;4737288;30;20070;-92
2022/05/02 06:45:29;;;;;;;9.38;5.78;;;15.20;88.20;;;;;;4748216;30;20055;-91
2022/05/02 06:48:24;;;;;;;9.40;5.80;;;15.30;89.50;;;;;;4740458;30;20133;-91
2022/05/02 06:51:06;;;;;;;7.07;3.80;;;15.50;88.40;;;;;;4741470;30;20062;-92
2022/05/02 06:53:46;;;;;;;7.32;4.28;;;15.70;84.30;;;;;;4744796;30;20087;-90
2022/05/02 06:56:32;;;;;;;6.22;3.75;;;15.80;85.60;;;;;;4741149;30;20066;-91
2022/05/02 06:59:20;;;;;;;8.00;3.55;;;16.00;85.20;;;;;;4734409;30;20075;-93
2022/05/02 07:02:06;;;;;;;8.27;3.92;;;16.10;85.00;;;;;;4718501;30;20051;-91
2022/05/02 07:04:42;;;;;;;7.50;4.03;;;16.70;82.60;;;;;;4727606;30;20068;-90
2022/05/02 07:07:44;;;;;;;5.78;3.50;;;16.80;82.50;;;;;;4720556;30;20058;-92
2022/05/02 07:10:22;;;;;;;3.90;2.08;;;17.20;82.30;;;;;;4727460;30;20922;-90
2022/05/02 07:12:54;;;;;;;5.38;2.03;;;17.20;79.50;;;;;;4724852;30;20096;-90
2022/05/02 07:15:36;;;;;;;2.97;1.85;;;16.90;79.50;;;;;;4732514;30;20143;-90
2022/05/02 07:18:05;;;;;;;3.85;1.80;;;16.80;81.40;;;;;;4736333;30;20056;-92
2022/05/02 07:20:45;;;;;;;5.75;1.80;;;16.70;82.20;;;;;;4740983;30;20052;-91
2022/05/02 07:23:47;;;;;;;3.67;1.38;;;16.60;80.50;;;;;;4726755;30;20060;-91
2022/05/02 07:26:18;;;;;;;2.60;1.10;;;16.50;81.70;;;;;;4756823;30;20066;-94
2022/05/02 07:28:47;;;;;;;2.92;1.20;;;16.40;82.00;;;;;;4718019;30;20064;-92
2022/05/02 07:31:22;;;;;;;4.03;1.33;;;16.40;81.10;;;;;;4733751;30;20060;-92
2022/05/02 07:33:52;;;;;;;2.67;0.90;;;16.40;82.40;;;;;;4718085;30;20060;-92
2022/05/02 07:36:22;;;;;;;3.95;1.52;;;16.40;80.30;;;;;;4742110;30;20056;-90
2022/05/02 07:39:04;;;;;;;4.45;1.10;;;16.40;80.40;;;;;;4735479;30;20064;-90
2022/05/02 07:41:35;;;;;;;3.25;1.10;;;16.40;79.70;;;;;;4717355;30;20186;-91
2022/05/02 07:44:04;;;;;;;3.28;0.90;;;16.50;79.40;;;;;;4742076;30;20052;-90
2022/05/02 07:46:42;;;;;;;2.40;0.90;;;16.50;78.40;;;;;;4740466;30;20048;-90
2022/05/02 07:49:13;;;;;;;2.33;1.10;;;16.50;77.40;;;;;;4726907;30;20060;-91
2022/05/02 07:51:51;;;;;;;1.60;1.00;;;16.60;79.80;;;;;;4734541;30;20056;-92
2022/05/02 07:54:25;;;;;;;2.67;0.88;;;16.70;77.40;;;;;;4735407;30;20064;-91
2022/05/02 07:57:04;;;;;;;1.90;0.90;;;16.80;77.00;;;;;;4749918;30;20061;-92
2022/05/02 07:59:36;;;;;;;6.88;1.00;;;16.90;78.00;;;;;;4740156;30;20055;-90
2022/05/02 08:02:05;;;;;;;1.35;1.05;;;17.00;79.10;;;;;;4764884;29;20486;-92
2022/05/02 08:04:33;;;;;;;1.95;0.90;;;17.10;75.60;;;;;;4742706;30;20063;-91
2022/05/02 08:07:22;;;;;;;1.88;1.00;;;17.30;77.90;;;;;;4754412;30;20098;-90
2022/05/02 08:09:57;;;;;;;7.28;1.63;;;17.40;76.20;;;;;;4735019;30;20429;-91
2022/05/02 08:12:36;;;;;;;3.83;1.25;;;17.40;78.00;;;;;;4748446;30;20071;-92
2022/05/02 08:15:15;;;;;;;1.95;1.17;;;17.50;79.10;;;;;;4744843;30;20059;-94
2022/05/02 08:17:42;;;;;;;2.03;0.90;;;17.40;75.20;;;;;;4758215;30;20109;-91
2022/05/02 08:20:13;;;;;;;10.60;2.05;;;17.50;74.10;;;;;;4767214;30;20059;-94
2022/05/02 08:29:08;;;;;;;3.00;0.73;;;17.50;73.00;;;;;;4747977;30;20114;-91
2022/05/02 08:31:41;;;;;;;2.35;0.80;;;17.40;74.00;;;;;;4744195;30;20051;-91
2022/05/02 08:34:21;;;;;;;2.28;0.85;;;17.30;73.60;;;;;;4759237;30;20055;-92
2022/05/02 08:36:59;;;;;;;2.63;0.75;;;17.30;75.80;;;;;;4762411;30;20107;-92
2022/05/02 08:39:40;;;;;;;1.20;0.63;;;17.40;76.10;;;;;;4755829;30;20055;-91
2022/05/02 08:42:22;;;;;;;4.45;1.02;;;17.30;72.70;;;;;;4754641;30;20112;-91
2022/05/02 08:45:37;;;;;;;3.60;0.90;;;17.30;76.90;;;;;;4757792;29;20052;-92
2022/05/02 08:48:33;;;;;;;2.47;0.70;;;17.30;76.30;;;;;;4716267;30;20061;-91
2022/05/02 08:51:37;;;;;;;2.58;0.70;;;17.20;72.00;;;;;;4743236;30;20512;-91
2022/05/02 08:54:34;;;;;;;2.20;0.60;;;17.30;71.10;;;;;;4763109;29;20060;-92
2022/05/02 08:57:18;;;;;;;1.63;0.52;;;17.30;71.50;;;;;;4760303;29;20060;-93
2022/05/02 09:00:04;;;;;;;1.15;0.65;;;17.40;71.70;;;;;;4732423;30;20162;-93
2022/05/02 09:02:54;;;;;;;2.40;0.50;;;17.40;71.20;;;;;;4766003;29;20056;-93
2022/05/02 09:05:50;;;;;;;1.30;0.70;;;17.50;72.00;;;;;;4749154;30;20083;-92
2022/05/02 09:08:56;;;;;;;0.80;0.40;;;17.40;73.60;;;;;;4734848;30;20070;-91
2022/05/02 09:11:33;;;;;;;2.65;0.70;;;17.40;72.50;;;;;;4732436;30;20056;-92
2022/05/02 09:14:58;;;;;;;6.55;1.30;;;17.40;71.90;;;;;;4749487;30;22729;-92
2022/05/02 09:17:45;;;;;;;1.90;0.93;;;17.50;75.10;;;;;;4718154;30;20056;-92
2022/05/02 09:20:25;;;;;;;3.55;1.05;;;17.50;76.10;;;;;;4715394;30;20502;-93
2022/05/02 09:23:29;;;;;;;4.53;1.40;;;17.60;74.00;;;;;;4739973;30;20068;-93
2022/05/02 09:26:06;;;;;;;4.32;1.25;;;17.50;73.80;;;;;;4756824;30;20067;-92
2022/05/02 09:28:53;;;;;;;1.85;1.10;;;17.60;74.10;;;;;;4760434;29;20063;-92
2022/05/02 09:31:49;;;;;;;2.58;1.08;;;17.60;74.20;;;;;;4740855;30;20435;-92
2022/05/02 09:34:26;;;;;;;2.53;1.17;;;17.60;73.80;;;;;;4725501;30;20144;-93
2022/05/02 09:37:03;;;;;;;2.13;1.00;;;17.70;72.50;;;;;;4752664;30;20063;-92
2022/05/02 09:39:48;;;;;;;4.50;0.98;;;17.80;72.80;;;;;;4724088;30;20060;-93
2022/05/02 09:42:54;;;;;;;3.10;0.95;;;17.90;72.70;;;;;;4756869;29;20160;-94
2022/05/02 09:51:46;;;;;;;11.90;7.53;;;18.30;72.20;;;;;;4754764;29;20130;-93
2022/05/02 09:57:27;;;;;;;5.20;2.72;;;18.50;70.30;;;;;;4748800;30;20055;-94
2022/05/02 10:02:48;;;;;;;3.10;2.50;;;18.70;71.60;;;;;;4746470;30;20056;-93
2022/05/02 10:05:29;;;;;;;5.32;2.17;;;18.80;69.30;;;;;;4751984;30;20059;-93
2022/05/02 10:08:31;;;;;;;2.83;1.50;;;18.80;68.50;;;;;;4757977;30;20059;-93
2022/05/02 10:11:17;;;;;;;4.35;1.95;;;18.90;67.90;;;;;;4741205;30;20058;-95
2022/05/02 10:14:22;;;;;;;2.85;1.40;;;18.90;65.60;;;;;;4771369;29;20567;-90
2022/05/02 10:17:11;;;;;;;4.43;1.75;;;18.90;67.80;;;;;;4758004;30;20125;-93
2022/05/02 10:20:04;;;;;;;2.25;1.42;;;19.30;68.80;;;;;;4740136;30;20101;-91
2022/05/02 10:22:42;;;;;;;;;;;19.50;65.70;;;;;;4759612;30;20059;-94
2022/05/02 10:26:06;;;;;;;1.58;0.80;;;19.80;68.10;;;;;;4745103;30;20024;-93
2022/05/02 10:29:02;;;;;;;4.78;1.40;;;20.00;63.70;;;;;;4718930;29;20051;-92
2022/05/02 10:31:38;;;;;;;2.80;1.23;;;19.60;60.80;;;;;;4743218;30;20063;-94
2022/05/02 10:34:08;;;;;;;3.45;1.27;;;19.70;63.60;;;;;;4752786;30;20798;-92
2022/05/02 10:36:40;;;;;;;3.78;1.10;;;20.10;65.60;;;;;;4743327;30;20055;-94
2022/05/02 10:39:40;;;;;;;2.67;0.98;;;20.20;61.10;;;;;;4755248;30;20062;-91
2022/05/02 10:42:10;;;;;;;3.45;1.20;;;20.50;64.10;;;;;;4754899;30;20147;-93
2022/05/02 10:44:54;;;;;;;3.20;1.30;;;20.50;64.30;;;;;;4759104;29;20146;-93
2022/05/02 10:47:25;;;;;;;4.22;1.85;;;20.80;62.50;;;;;;4747209;30;20051;-93
2022/05/02 10:50:02;;;;;;;2.70;1.25;;;20.90;61.80;;;;;;4768836;30;20070;-93
2022/05/02 10:52:47;;;;;;;2.08;1.00;;;20.90;61.00;;;;;;4747540;30;20182;-91
2022/05/02 10:55:32;;;;;;;3.05;1.60;;;20.80;60.60;;;;;;4747030;30;20051;-90
2022/05/02 10:58:05;;;;;;;1.60;1.10;;;21.00;60.80;;;;;;4758072;30;20055;-95
2022/05/02 11:00:35;;;;;;;3.30;1.08;;;21.00;57.80;;;;;;4762315;30;20059;-93
2022/05/02 11:03:27;;;;;;;3.05;1.00;;;21.00;57.60;;;;;;4749020;29;20074;-95
2022/05/02 11:06:11;;;;;;;2.25;0.90;;;20.90;61.10;;;;;;4747499;30;20120;-92
2022/05/02 11:08:47;;;;;;;2.67;1.02;;;21.40;58.80;;;;;;4747652;30;20055;-92
2022/05/02 11:11:40;;;;;;;1.77;0.88;;;21.40;58.50;;;;;;4748515;29;20090;-94
2022/05/02 11:14:31;;;;;;;2.97;0.90;;;21.30;57.70;;;;;;4748720;30;20071;-93
2022/05/02 11:17:15;;;;;;;1.73;0.82;;;21.40;58.00;;;;;;4748348;30;20063;-95
2022/05/02 11:23:12;;;;;;;2.50;0.80;;;21.30;58.80;;;;;;4764623;29;20097;-94
2022/05/02 11:25:57;;;;;;;3.97;0.90;;;21.30;57.90;;;;;;4740220;30;20067;-93
2022/05/02 11:28:48;;;;;;;2.67;1.23;;;21.50;58.20;;;;;;4755273;30;20132;-90
2022/05/02 11:31:29;;;;;;;2.60;1.00;;;21.50;57.60;;;;;;4745680;30;20063;-93
2022/05/02 11:34:23;;;;;;;2.25;0.93;;;21.50;57.10;;;;;;4761631;30;20073;-93
2022/05/02 11:36:54;;;;;;;3.63;0.85;;;21.60;55.80;;;;;;4749291;30;20047;-91
2022/05/02 11:39:37;;;;;;;1.52;0.60;;;21.40;57.80;;;;;;4748064;30;20059;-93
2022/05/02 11:42:13;;;;;;;2.45;0.80;;;21.50;56.70;;;;;;4743122;30;20055;-93
2022/05/02 11:45:11;;;;;;;3.17;1.00;;;21.50;57.60;;;;;;4755073;30;20086;-96
2022/05/02 11:48:27;;;;;;;1.30;0.65;;;21.60;58.00;;;;;;4749052;29;20516;-93
2022/05/02 11:50:56;;;;;;;1.15;0.80;;;21.60;53.30;;;;;;4759554;30;20052;-94
2022/05/02 11:53:30;;;;;;;2.78;1.02;;;21.70;53.70;;;;;;4750110;30;20051;-94
2022/05/02 11:56:03;;;;;;;1.55;0.57;;;22.00;52.80;;;;;;4750840;30;20150;-93
2022/05/02 11:58:43;;;;;;;1.67;0.73;;;22.10;51.40;;;;;;4753988;30;20568;-93
2022/05/02 12:01:20;;;;;;;2.13;0.80;;;22.20;53.10;;;;;;4774431;30;20063;-96
2022/05/02 12:04:04;;;;;;;3.65;1.33;;;22.40;53.30;;;;;;4762101;30;20051;-93
2022/05/02 12:06:44;;;;;;;3.33;0.95;;;22.50;51.20;;;;;;4747866;24;20055;-63
2022/05/02 12:09:23;;;;;;;1.88;1.00;;;22.40;50.90;;;;;;4733437;30;20061;-63
2022/05/02 12:11:52;;;;;;;1.98;0.70;;;22.40;50.30;;;;;;4733563;30;20091;-63
2022/05/02 12:14:21;;;;;;;2.55;0.82;;;22.50;52.50;;;;;;4733257;30;20059;-62
2022/05/02 12:17:09;;;;;;;4.05;0.85;;;22.60;49.60;;;;;;4733033;30;20481;-62
2022/05/02 12:19:40;;;;;;;3.58;0.77;;;22.80;51.10;;;;;;4716530;30;20409;-63
2022/05/02 12:22:16;;;;;;;3.28;1.02;;;22.90;53.40;;;;;;4731527;30;20060;-63
2022/05/02 12:24:48;;;;;;;1.80;0.88;;;22.90;51.20;;;;;;4722902;30;20063;-63
2022/05/02 12:27:18;;;;;;;2.50;1.00;;;22.80;50.80;;;;;;4732871;30;20066;-63
2022/05/02 12:29:58;;;;;;;1.60;0.98;;;22.60;49.30;;;;;;4732332;30;20431;-63
2022/05/02 12:32:26;;;;;;;2.47;1.08;;;23.00;51.80;;;;;;4732994;30;20066;-62
2022/05/02 12:35:00;;;;;;;5.00;1.10;;;22.60;47.70;;;;;;4705228;30;20060;-63
2022/05/02 12:37:32;;;;;;;1.90;0.68;;;22.20;49.30;;;;;;4726476;30;20055;-63
2022/05/02 12:40:05;;;;;;;3.97;1.20;;;22.50;51.20;;;;;;4716623;30;20064;-63
2022/05/02 12:42:41;;;;;;;3.75;1.02;;;22.80;51.60;;;;;;4708842;30;20090;-63
2022/05/02 12:45:11;;;;;;;2.58;1.08;;;22.60;54.70;;;;;;4728204;30;20062;-63
2022/05/02 12:47:50;;;;;;;1.63;0.70;;;23.00;52.80;;;;;;4716434;30;20055;-63
2022/05/02 12:50:21;;;;;;;3.22;0.80;;;23.20;51.00;;;;;;4714753;30;20116;-63
2022/05/02 12:52:51;;;;;;;4.00;0.90;;;23.10;50.70;;;;;;4721318;30;20265;-64
2022/05/02 12:55:21;;;;;;;1.60;0.85;;;23.00;52.50;;;;;;4729547;30;20051;-63
2022/05/02 13:00:41;;;;;;;1.75;1.13;;;23.30;51.30;;;;;;4727991;29;20063;-62
2022/05/02 13:03:17;;;;;;;2.65;1.00;;;23.30;48.50;;;;;;4721741;30;20196;-62
2022/05/02 13:05:57;;;;;;;1.10;0.50;;;23.20;49.50;;;;;;4726047;30;20055;-63
2022/05/02 13:08:32;;;;;;;2.28;0.93;;;23.40;51.50;;;;;;4703090;30;20059;-63
2022/05/02 13:11:08;;;;;;;2.10;0.52;;;23.10;48.90;;;;;;4730504;30;22308;-63
2022/05/02 13:13:41;;;;;;;1.90;0.82;;;22.70;48.10;;;;;;4727597;30;20051;-63
2022/05/02 13:16:48;;;;;;;2.10;0.88;;;23.00;52.00;;;;;;4728337;30;20055;-63
2022/05/02 13:19:16;;;;;;;2.92;0.93;;;22.90;49.10;;;;;;4731050;30;20835;-62
2022/05/02 13:21:56;;;;;;;2.95;0.82;;;22.80;48.50;;;;;;4730068;30;20067;-63
2022/05/02 13:24:23;;;;;;;2.15;0.60;;;22.70;46.40;;;;;;4717498;30;20093;-63
2022/05/02 13:27:08;;;;;;;2.20;0.40;;;22.70;49.60;;;;;;4725341;30;20066;-62
2022/05/02 13:29:53;;;;;;;1.50;0.57;;;22.70;45.00;;;;;;4726194;30;22259;-62
2022/05/02 13:32:44;;;;;;;1.20;0.60;;;23.00;46.40;;;;;;4730863;30;20086;-63
2022/05/02 13:35:13;;;;;;;2.25;0.57;;;22.90;48.70;;;;;;4731095;30;20114;-62
2022/05/02 13:37:53;;;;;;;1.60;0.55;;;23.20;44.60;;;;;;4727130;30;20054;-63
2022/05/02 13:40:21;;;;;;;2.20;0.50;;;23.10;44.80;;;;;;4727809;30;20108;-62
2022/05/02 13:42:57;;;;;;;3.20;0.55;;;23.10;44.80;;;;;;4731087;30;20057;-62
2022/05/02 13:45:35;;;;;;;1.73;0.50;;;23.20;45.80;;;;;;4731032;30;20431;-63
2022/05/02 13:48:18;;;;;;;0.90;0.63;;;23.20;45.20;;;;;;4728347;30;20104;-63
2022/05/02 13:50:48;;;;;;;1.17;0.43;;;23.40;45.20;;;;;;4727504;30;20696;-62
2022/05/02 13:53:34;;;;;;;0.90;0.70;;;23.50;44.40;;;;;;4732784;30;20134;-62
2022/05/02 13:56:42;;;;;;;2.90;0.40;;;23.30;43.90;;;;;;4730326;30;20130;-63
2022/05/02 13:59:36;;;;;;;1.90;0.60;;;23.30;42.90;;;;;;4731115;30;20051;-62
2022/05/02 14:02:41;;;;;;;2.17;0.50;;;23.10;44.00;;;;;;4725056;30;20059;-63
2022/05/02 14:05:24;;;;;;;1.35;0.55;;;23.10;43.50;;;;;;4690632;30;20080;-63
2022/05/02 14:07:59;;;;;;;1.38;0.47;;;23.10;42.30;;;;;;4731549;30;20825;-63